createdAt,value
2023-01-10T02:02:26.888Z,-2.78
2023-01-10T02:05:02.186Z,-2.69
2023-01-10T02:07:31.525Z,-2.62
2023-01-10T02:10:15.165Z,-2.53
2023-01-10T02:12:43.195Z,-2.47
2023-01-10T02:15:10.658Z,-2.42
2023-01-10T02:17:38.149Z,-2.37
2023-01-10T02:20:10.362Z,-2.31
2023-01-10T02:23:02.655Z,-2.31
2023-01-10T02:25:54.114Z,-2.31
2023-01-10T02:28:42.896Z,-2.28
2023-01-10T02:31:18.525Z,-2.28
2023-01-10T02:33:48.110Z,-2.28
2023-01-10T02:36:34.293Z,-2.24
2023-01-10T02:39:11.918Z,-2.20
2023-01-10T02:42:09.049Z,-2.17
2023-01-10T02:44:43.076Z,-2.13
2023-01-10T02:47:10.156Z,-2.12
2023-01-10T02:49:47.728Z,-2.11
2023-01-10T02:52:25.815Z,-2.12
2023-01-10T02:54:55.373Z,-2.13
2023-01-10T02:57:49.127Z,-2.15
2023-01-10T03:00:22.343Z,-2.14
2023-01-10T03:03:16.475Z,-2.12
2023-01-10T03:06:02.125Z,-2.08
2023-01-10T03:08:47.513Z,-2.05
2023-01-10T03:11:14.645Z,-2.02
2023-01-10T03:13:56.817Z,-2.01
2023-01-10T03:16:26.450Z,-1.99
2023-01-10T03:18:58.053Z,-2.00
2023-01-10T03:21:24.832Z,-2.02
2023-01-10T03:23:53.465Z,-2.04
2023-01-10T03:26:26.309Z,-2.06
2023-01-10T03:28:56.466Z,-2.07
2023-01-10T03:31:29.683Z,-2.04
2023-01-10T03:33:56.431Z,-2.01
2023-01-10T03:36:55.520Z,-2.00
2023-01-10T03:39:42.310Z,-2.01
2023-01-10T03:42:16.180Z,-2.02
2023-01-10T03:44:55.205Z,-2.05
2023-01-10T03:47:40.580Z,-2.08
2023-01-10T03:50:17.207Z,-2.12
2023-01-10T03:52:44.093Z,-2.14
2023-01-10T03:55:12.470Z,-2.13
2023-01-10T03:57:42.083Z,-2.12
2023-01-10T04:00:09.317Z,-2.09
2023-01-10T04:02:36.234Z,-2.08
2023-01-10T04:05:03.893Z,-2.08
2023-01-10T04:07:30.967Z,-2.11
2023-01-10T04:09:58.075Z,-2.14
2023-01-10T04:12:24.849Z,-2.19
2023-01-10T04:14:51.967Z,-2.22
2023-01-10T04:17:18.813Z,-2.22
2023-01-10T04:19:45.580Z,-2.22
2023-01-10T04:22:13.035Z,-2.23
2023-01-10T04:24:39.966Z,-2.24
2023-01-10T04:27:06.823Z,-2.27
2023-01-10T04:29:35.159Z,-2.32
2023-01-10T04:32:02.037Z,-2.36
2023-01-10T04:34:30.069Z,-2.42
2023-01-10T04:36:57.004Z,-2.46
2023-01-10T04:39:23.738Z,-2.45
2023-01-10T04:41:50.562Z,-2.46
2023-01-10T04:44:17.620Z,-2.47
2023-01-10T04:46:44.981Z,-2.48
2023-01-10T04:49:11.855Z,-2.50
2023-01-10T04:51:38.625Z,-2.54
2023-01-10T04:54:06.432Z,-2.58
2023-01-10T04:56:33.279Z,-2.63
2023-01-10T04:59:00.066Z,-2.65
2023-01-10T05:01:27.042Z,-2.68
2023-01-10T05:03:54.713Z,-2.69
2023-01-10T05:06:22.371Z,-2.73
2023-01-10T05:08:49.701Z,-2.75
2023-01-10T05:11:16.771Z,-2.81
2023-01-10T05:13:43.753Z,-2.88
2023-01-10T05:16:11.856Z,-2.94
2023-01-10T05:18:38.714Z,-2.99
2023-01-10T05:21:07.717Z,-3.02
2023-01-10T05:23:36.195Z,-3.03
2023-01-10T05:26:12.000Z,-3.05
2023-01-10T05:28:39.102Z,-3.08
2023-01-10T05:31:07.414Z,-3.10
2023-01-10T05:33:34.330Z,-3.13
2023-01-10T05:36:02.337Z,-3.18
2023-01-10T05:38:29.904Z,-3.24
2023-01-10T05:40:58.923Z,-3.28
2023-01-10T05:43:26.295Z,-3.29
2023-01-10T05:45:53.745Z,-3.29
2023-01-10T05:48:20.569Z,-3.31
2023-01-10T05:50:49.294Z,-3.34
2023-01-10T05:53:19.599Z,-3.39
2023-01-10T05:55:54.383Z,-3.44
2023-01-10T05:58:21.268Z,-3.52
2023-01-10T06:00:51.090Z,-3.60
2023-01-10T06:03:18.521Z,-3.63
2023-01-10T06:05:48.668Z,-3.65
2023-01-10T06:08:19.113Z,-3.68
2023-01-10T06:10:46.331Z,-3.72
2023-01-10T06:13:14.195Z,-3.77
2023-01-10T06:15:41.372Z,-3.81
2023-01-10T06:18:11.178Z,-3.85
2023-01-10T06:20:40.734Z,-3.87
2023-01-10T06:23:07.492Z,-3.86
2023-01-10T06:25:39.836Z,-3.86
2023-01-10T06:28:11.049Z,-3.85
2023-01-10T06:30:41.486Z,-3.85
2023-01-10T06:33:08.990Z,-3.88
2023-01-10T06:35:36.310Z,-3.90
2023-01-10T06:38:03.470Z,-3.90
2023-01-10T06:40:30.182Z,-3.87
2023-01-10T06:42:58.576Z,-3.87
2023-01-10T06:45:25.563Z,-3.87
2023-01-10T06:47:52.392Z,-3.85
2023-01-10T06:50:19.435Z,-3.85
2023-01-10T06:52:46.465Z,-3.83
2023-01-10T06:55:13.691Z,-3.80
2023-01-10T06:57:40.558Z,-3.74
2023-01-10T07:00:08.514Z,-3.69
2023-01-10T07:02:35.318Z,-3.67
2023-01-10T07:05:02.612Z,-3.69
2023-01-10T07:07:29.980Z,-3.72
2023-01-10T07:09:59.665Z,-3.74
2023-01-10T07:12:27.076Z,-3.79
2023-01-10T07:14:53.967Z,-3.80
2023-01-10T07:17:21.079Z,-3.80
2023-01-10T07:19:48.076Z,-3.77
2023-01-10T07:22:15.301Z,-3.72
2023-01-10T07:24:42.412Z,-3.70
2023-01-10T07:27:09.206Z,-3.70
2023-01-10T07:29:37.002Z,-3.70
2023-01-10T07:32:04.027Z,-3.68
2023-01-10T07:34:33.423Z,-3.67
2023-01-10T07:37:00.952Z,-3.68
2023-01-10T07:39:27.809Z,-3.70
2023-01-10T07:41:54.727Z,-3.71
2023-01-10T07:44:22.138Z,-3.77
2023-01-10T07:46:52.290Z,-3.80
2023-01-10T07:49:23.391Z,-3.84
2023-01-10T07:52:10.061Z,-3.85
2023-01-10T10:05:47.576Z,-3.45
2023-01-10T10:08:17.004Z,-3.29
2023-01-10T10:11:01.484Z,-3.30
2023-01-10T10:13:35.368Z,-3.34
2023-01-10T10:16:09.143Z,-3.34
2023-01-10T10:19:10.169Z,-3.32
2023-01-10T10:21:49.419Z,-3.26
2023-01-10T10:24:35.238Z,-3.19
2023-01-10T10:27:23.663Z,-3.13
2023-01-10T10:29:56.578Z,-3.11
2023-01-10T10:32:51.871Z,-3.08
2023-01-10T10:35:34.000Z,-3.10
2023-01-10T12:29:34.972Z,-2.89
2023-01-10T12:32:03.953Z,-2.71
2023-01-10T12:34:43.288Z,-2.73
2023-01-10T12:37:40.585Z,-2.75
2023-01-10T12:40:36.723Z,-2.79
2023-01-10T12:43:34.591Z,-2.81
2023-01-10T12:46:50.107Z,-2.80
2023-01-10T12:49:23.880Z,-2.75
2023-01-10T12:51:59.066Z,-2.71
2023-01-10T12:54:28.322Z,-2.71
2023-01-10T12:56:55.825Z,-2.72
2023-01-10T12:59:36.996Z,-2.74
2023-01-10T13:02:06.754Z,-2.75
2023-01-10T13:04:35.205Z,-2.77
2023-01-10T13:07:03.492Z,-2.79
2023-01-10T13:09:30.538Z,-2.81
2023-01-10T13:12:11.109Z,-2.83
2023-01-10T13:14:45.922Z,-2.85
2023-01-10T13:17:21.932Z,-2.87
2023-01-10T13:20:17.243Z,-2.86
2023-01-10T13:22:45.449Z,-2.89
2023-01-10T13:25:19.475Z,-2.91
2023-01-10T13:27:46.385Z,-2.94
2023-01-10T13:30:31.999Z,-2.97
2023-01-10T13:33:07.521Z,-2.98
2023-01-10T13:35:39.782Z,-2.96
2023-01-10T13:38:06.817Z,-2.94
2023-01-10T13:40:33.952Z,-2.95
2023-01-10T13:43:36.655Z,-2.96
2023-01-10T13:46:19.192Z,-3.01
2023-01-10T13:48:49.163Z,-3.05
2023-01-10T13:51:20.265Z,-3.07
2023-01-10T13:53:55.422Z,-3.08
2023-01-10T13:56:41.732Z,-3.11
2023-01-10T13:59:53.634Z,-3.10
2023-01-10T14:02:34.161Z,-3.05
2023-01-10T14:05:08.574Z,-3.04
2023-01-10T14:07:48.867Z,-3.02
2023-01-10T14:10:30.010Z,-3.03
2023-01-10T14:13:09.282Z,-3.05
2023-01-10T14:15:41.064Z,-3.07
2023-01-10T14:18:17.308Z,-3.10
2023-01-10T14:20:44.292Z,-3.11
2023-01-10T14:23:21.836Z,-3.11
2023-01-10T14:25:53.646Z,-3.09
2023-01-10T14:28:23.792Z,-3.08
2023-01-10T14:31:05.608Z,-3.08
2023-01-10T14:33:32.752Z,-3.05
2023-01-10T14:36:03.723Z,-3.02
2023-01-10T14:38:32.195Z,-2.96
2023-01-10T14:41:01.535Z,-2.96
2023-01-10T14:43:41.864Z,-2.95
2023-01-10T14:46:11.818Z,-2.93
2023-01-10T14:48:46.969Z,-2.93
2023-01-10T14:51:26.285Z,-2.92
2023-01-10T14:54:03.381Z,-2.91
2023-01-10T14:56:31.427Z,-2.90
2023-01-10T14:58:58.279Z,-2.90
2023-01-10T15:01:27.418Z,-2.88
2023-01-10T15:03:54.425Z,-2.86
2023-01-10T15:06:21.539Z,-2.86
2023-01-10T15:08:56.875Z,-2.83
2023-01-10T15:11:24.098Z,-2.82
2023-01-10T15:13:53.690Z,-2.80
2023-01-10T15:16:25.458Z,-2.79
2023-01-10T15:18:52.817Z,-2.79
2023-01-10T15:21:22.312Z,-2.76
2023-01-10T15:23:50.504Z,-2.75
2023-01-10T15:26:29.915Z,-2.75
2023-01-10T15:29:13.318Z,-2.74
2023-01-10T15:31:40.637Z,-2.72
2023-01-10T15:34:15.019Z,-2.71
2023-01-10T15:37:12.851Z,-2.73
2023-01-10T15:39:39.733Z,-2.73
2023-01-10T15:42:08.871Z,-2.73
2023-01-10T15:44:37.118Z,-2.73
2023-01-10T15:47:04.686Z,-2.75
2023-01-10T15:49:31.663Z,-2.78
2023-01-10T15:51:58.629Z,-2.80
2023-01-10T15:54:25.578Z,-2.83
2023-01-10T15:57:04.622Z,-2.84
2023-01-10T15:59:33.434Z,-2.84
2023-01-10T16:02:16.133Z,-2.85
